Kishiwada, Japan
Current Conditions -  °F | °C
As of 10:30 AM on Friday 28 Nov 2014 (Local Time) from RJBB Reporting Station
Broken Clouds Broken Clouds  
Wind Chill: 57°   Ceiling: 5000
Heat Index: 57°   Visibility: 6mi
Dew Point: 48°   Wind: 7mph
Humidity: 72%   Direction: 70°ENE
Pressure: 30.21"   Gusts: NA
Location:  34.47°N, 135.39°E
Report Text: RJBB 280130Z 07006KT 9999 FEW025 BKN050 14/09 Q1023 BECMG 22005KT
Loading
Personal Weather Stations






























Interactive Weather Map New forecast layout! Learn more

10-Day Weather Forecast

Advertisements
Track Severe Weather on mobile